Terminal Aerodrome Forecast
Issued by NWS

Home | Current Version | Previous Version | Text Only | Print | Product List | Glossary On
Versions: 1 2 3 4 5 6 7 8 9 10 11 12 13 14 15 16 17 18 19 20 21 22 23 24
575
FTUS43 KPAH 151701 AAC
TAFCGI
TAF AMD
KCGI 151701Z 1517/1612 20005KT P6SM SCT015
      TEMPO 1517/1519 BKN015
     FM151900 23004KT P6SM BKN030
     FM160000 15003KT P6SM SCT100 BKN250=

USA.gov is the U.S. government's official web portal to all federal, state and local government web resources and services.